createdAt,value
2019-05-21T08:27:14.236Z,962.52
2019-05-21T08:28:32.266Z,962.52
2019-05-21T08:29:09.206Z,962.51
2019-05-21T08:30:05.133Z,962.46
2019-05-21T08:31:23.741Z,962.56
2019-05-21T08:32:09.319Z,962.57
2019-05-21T08:33:07.607Z,962.52
2019-05-21T08:34:07.371Z,962.56
2019-05-21T08:35:28.415Z,962.58
2019-05-21T08:36:08.331Z,962.58
2019-05-21T08:37:10.082Z,962.61
2019-05-21T08:38:09.311Z,962.63
2019-05-21T08:39:10.657Z,962.64
2019-05-21T08:40:09.939Z,962.66
2019-05-21T08:41:10.338Z,962.67
2019-05-21T08:42:27.698Z,962.67
2019-05-21T08:43:11.278Z,962.69
2019-05-21T08:44:22.909Z,962.72
2019-05-21T08:45:14.002Z,962.67
2019-05-21T08:46:15.021Z,962.72
2019-05-21T08:47:13.648Z,962.69
2019-05-21T08:48:13.939Z,962.73
2019-05-21T08:49:14.424Z,962.76
2019-05-21T08:50:17.404Z,962.73
2019-05-21T08:51:17.186Z,962.73
2019-05-21T08:52:15.887Z,962.81
2019-05-21T08:53:19.104Z,962.80
2019-05-21T08:54:17.309Z,962.84
2019-05-21T08:55:18.213Z,962.86
2019-05-21T08:56:19.359Z,962.87
2019-05-21T08:57:20.500Z,962.85
2019-05-21T08:58:21.201Z,962.86
2019-05-21T08:59:21.069Z,962.94
2019-05-21T09:00:24.428Z,962.94
2019-05-21T09:01:22.301Z,962.97
2019-05-21T09:02:22.747Z,963.01
2019-05-21T09:03:26.260Z,962.95
2019-05-21T09:04:43.523Z,963.01
2019-05-21T09:05:23.443Z,963.00
2019-05-21T09:06:23.611Z,963.02
2019-05-21T09:07:24.171Z,963.08
2019-05-21T09:08:24.747Z,963.05
2019-05-21T09:09:25.135Z,963.03
2019-05-21T09:10:25.318Z,963.03
2019-05-21T09:11:25.600Z,963.04
2019-05-21T09:12:27.534Z,963.11
2019-05-21T09:13:26.753Z,963.07
2019-05-21T09:14:28.004Z,963.08
2019-05-21T09:15:28.200Z,963.05
2019-05-21T09:16:28.129Z,963.03
2019-05-21T09:17:29.517Z,963.06
2019-05-21T09:18:29.177Z,963.11
2019-05-21T09:19:29.608Z,963.04
2019-05-21T09:20:30.188Z,963.06
2019-05-21T09:21:32.161Z,963.08
2019-05-21T09:22:33.105Z,963.02
2019-05-21T09:23:40.247Z,963.01
2019-05-21T09:24:35.139Z,963.00
2019-05-21T09:25:32.966Z,963.00
2019-05-21T09:27:33.608Z,963.03
2019-05-21T09:28:22.406Z,963.11
2019-05-21T09:29:33.927Z,963.05
2019-05-21T09:30:31.426Z,963.08
2019-05-21T09:31:25.520Z,963.21
2019-05-21T09:32:28.280Z,963.22
2019-05-21T09:33:27.182Z,963.15
2019-05-21T09:34:26.521Z,963.12
2019-05-21T09:35:26.759Z,963.13
2019-05-21T09:38:05.780Z,963.20
2019-05-21T09:39:11.068Z,963.16
2019-05-21T09:42:23.068Z,963.20
2019-05-21T09:43:21.288Z,963.21
2019-05-21T09:44:35.021Z,963.23
2019-05-21T09:45:12.666Z,963.24
2019-05-21T09:46:13.508Z,963.22
2019-05-21T09:47:18.866Z,963.21
2019-05-21T09:48:30.849Z,963.24
2019-05-21T09:49:43.506Z,963.24
2019-05-21T09:50:14.444Z,963.24
2019-05-21T09:51:22.202Z,963.26
2019-05-21T09:52:19.081Z,963.29
2019-05-21T09:53:15.921Z,963.30
2019-05-21T09:56:08.021Z,963.30
2019-05-21T09:58:56.620Z,963.27
2019-05-21T10:00:59.985Z,963.30
2019-05-21T10:03:12.487Z,963.30
2019-05-21T10:04:07.901Z,963.31
2019-05-21T10:04:59.481Z,963.35
2019-05-21T10:05:57.761Z,963.33
2019-05-21T10:08:59.893Z,963.36
2019-05-21T10:10:01.027Z,963.39
2019-05-21T10:11:00.199Z,963.36
2019-05-21T10:12:01.040Z,963.41
2019-05-21T10:13:02.927Z,963.42
2019-05-21T10:16:01.400Z,963.48
2019-05-21T10:16:59.631Z,963.43
2019-05-21T10:18:01.351Z,963.51
2019-05-21T10:19:01.331Z,963.51
2019-05-21T10:20:03.087Z,963.55
2019-05-21T10:24:03.781Z,963.55
2019-05-21T10:27:03.897Z,963.54
2019-05-21T13:10:29.783Z,965.22
2019-05-21T13:11:30.646Z,965.24
2019-05-21T13:12:31.419Z,965.23
2019-05-21T13:13:32.961Z,965.22
2019-05-21T13:14:32.567Z,965.28
2019-05-21T13:17:47.176Z,965.28
2019-05-21T13:18:47.978Z,965.29
2019-05-21T13:21:13.014Z,965.28
2019-05-21T13:22:13.518Z,965.29
2019-05-21T13:23:13.976Z,965.31
2019-05-21T13:24:14.739Z,965.29
2019-05-21T13:25:15.052Z,965.26
2019-05-21T13:26:15.467Z,965.29
2019-05-21T13:27:16.013Z,965.30
2019-05-21T13:28:16.608Z,965.29
2019-05-21T13:29:16.997Z,965.29
2019-05-21T13:30:20.344Z,965.31
2019-05-21T13:31:18.077Z,965.28
2019-05-21T13:32:18.626Z,965.26
2019-05-21T13:33:19.684Z,965.35
2019-05-21T13:34:19.644Z,965.33
2019-05-21T13:35:20.226Z,965.32
2019-05-21T13:36:22.482Z,965.35
2019-05-21T13:37:21.118Z,965.36
2019-05-21T13:38:21.584Z,965.37
2019-05-21T13:43:26.428Z,965.39
2019-05-21T13:44:26.938Z,965.44
2019-05-21T13:45:27.464Z,965.44
2019-05-21T13:46:27.961Z,965.44
2019-05-21T13:47:28.465Z,965.50
2019-05-21T13:48:29.000Z,965.48
2019-05-21T13:49:30.089Z,965.44
2019-05-21T13:50:30.017Z,965.47
2019-05-21T13:51:31.101Z,965.47
2019-05-21T13:52:31.193Z,965.48
2019-05-21T13:53:32.096Z,965.43
2019-05-21T13:54:32.591Z,965.49
2019-05-21T13:55:34.103Z,965.49
2019-05-21T13:56:33.051Z,965.51
2019-05-21T13:57:34.096Z,965.52
2019-05-21T13:58:34.592Z,965.47
2019-05-21T13:59:34.573Z,965.45
2019-05-21T14:00:35.107Z,965.48
2019-05-21T14:01:40.918Z,965.51
2019-05-21T14:02:36.102Z,965.49
2019-05-21T14:03:36.621Z,965.52
